sensor_id;sensor_type;location;lat;lon;timestamp;P1;durP1;ratioP1;P2;durP2;ratioP2
31130;SDS011;20292;50.944;4.034;2022-09-20T00:01:10;11.98;;;4.40;;
31130;SDS011;20292;50.944;4.034;2022-09-20T00:04:03;13.25;;;4.20;;
31130;SDS011;20292;50.944;4.034;2022-09-20T00:06:30;8.13;;;3.83;;
31130;SDS011;20292;50.944;4.034;2022-09-20T00:08:56;8.75;;;3.80;;
31130;SDS011;20292;50.944;4.034;2022-09-20T00:11:27;10.43;;;4.07;;
31130;SDS011;20292;50.944;4.034;2022-09-20T00:13:56;12.55;;;4.43;;
31130;SDS011;20292;50.944;4.034;2022-09-20T00:16:25;11.88;;;3.60;;
31130;SDS011;20292;50.944;4.034;2022-09-20T00:18:53;11.05;;;4.13;;
31130;SDS011;20292;50.944;4.034;2022-09-20T00:21:22;8.25;;;4.40;;
31130;SDS011;20292;50.944;4.034;2022-09-20T00:23:50;10.25;;;4.53;;
31130;SDS011;20292;50.944;4.034;2022-09-20T00:26:18;10.15;;;4.10;;
31130;SDS011;20292;50.944;4.034;2022-09-20T00:28:43;10.52;;;4.20;;
31130;SDS011;20292;50.944;4.034;2022-09-20T00:31:11;12.98;;;4.47;;
31130;SDS011;20292;50.944;4.034;2022-09-20T00:33:37;11.68;;;4.35;;
31130;SDS011;20292;50.944;4.034;2022-09-20T00:36:22;12.00;;;4.50;;
31130;SDS011;20292;50.944;4.034;2022-09-20T00:38:47;14.70;;;4.10;;
31130;SDS011;20292;50.944;4.034;2022-09-20T00:41:13;10.60;;;4.07;;
31130;SDS011;20292;50.944;4.034;2022-09-20T00:43:40;15.15;;;4.10;;
31130;SDS011;20292;50.944;4.034;2022-09-20T00:46:15;11.60;;;3.95;;
31130;SDS011;20292;50.944;4.034;2022-09-20T00:48:50;10.52;;;4.07;;
31130;SDS011;20292;50.944;4.034;2022-09-20T00:51:20;11.48;;;4.32;;
31130;SDS011;20292;50.944;4.034;2022-09-20T00:53:50;10.15;;;4.18;;
31130;SDS011;20292;50.944;4.034;2022-09-20T00:56:20;9.23;;;3.85;;
31130;SDS011;20292;50.944;4.034;2022-09-20T00:58:49;6.85;;;3.95;;
31130;SDS011;20292;50.944;4.034;2022-09-20T01:01:23;7.28;;;3.60;;
31130;SDS011;20292;50.944;4.034;2022-09-20T01:03:49;13.35;;;3.70;;
31130;SDS011;20292;50.944;4.034;2022-09-20T01:06:15;14.82;;;4.65;;
31130;SDS011;20292;50.944;4.034;2022-09-20T01:08:42;9.93;;;4.00;;
31130;SDS011;20292;50.944;4.034;2022-09-20T01:11:13;14.38;;;4.00;;
31130;SDS011;20292;50.944;4.034;2022-09-20T01:13:38;12.15;;;4.15;;
31130;SDS011;20292;50.944;4.034;2022-09-20T01:16:04;15.55;;;4.47;;
31130;SDS011;20292;50.944;4.034;2022-09-20T01:18:32;12.75;;;4.70;;
31130;SDS011;20292;50.944;4.034;2022-09-20T01:20:59;9.18;;;4.10;;
31130;SDS011;20292;50.944;4.034;2022-09-20T01:23:47;11.05;;;4.43;;
31130;SDS011;20292;50.944;4.034;2022-09-20T01:26:32;9.93;;;4.23;;
31130;SDS011;20292;50.944;4.034;2022-09-20T01:31:51;11.02;;;4.68;;
31130;SDS011;20292;50.944;4.034;2022-09-20T01:35:04;12.70;;;4.32;;
31130;SDS011;20292;50.944;4.034;2022-09-20T01:39:50;14.07;;;4.90;;
31130;SDS011;20292;50.944;4.034;2022-09-20T01:42:35;13.20;;;4.55;;
31130;SDS011;20292;50.944;4.034;2022-09-20T01:45:06;13.38;;;4.30;;
31130;SDS011;20292;50.944;4.034;2022-09-20T01:54:09;11.82;;;4.38;;
31130;SDS011;20292;50.944;4.034;2022-09-20T01:59:55;8.18;;;3.95;;
31130;SDS011;20292;50.944;4.034;2022-09-20T02:11:42;11.43;;;4.30;;
31130;SDS011;20292;50.944;4.034;2022-09-20T02:17:01;8.27;;;3.95;;
31130;SDS011;20292;50.944;4.034;2022-09-20T02:19:57;11.93;;;4.28;;
31130;SDS011;20292;50.944;4.034;2022-09-20T02:31:10;14.67;;;4.70;;
31130;SDS011;20292;50.944;4.034;2022-09-20T02:37:04;11.63;;;4.40;;
31130;SDS011;20292;50.944;4.034;2022-09-20T02:39:56;12.05;;;3.97;;
31130;SDS011;20292;50.944;4.034;2022-09-20T02:42:51;11.05;;;4.57;;
31130;SDS011;20292;50.944;4.034;2022-09-20T02:47:49;14.82;;;4.20;;
31130;SDS011;20292;50.944;4.034;2022-09-20T03:05:59;12.00;;;4.07;;
31130;SDS011;20292;50.944;4.034;2022-09-20T03:08:48;9.15;;;3.85;;
31130;SDS011;20292;50.944;4.034;2022-09-20T03:11:27;10.63;;;4.40;;
31130;SDS011;20292;50.944;4.034;2022-09-20T03:14:25;12.02;;;4.18;;
31130;SDS011;20292;50.944;4.034;2022-09-20T03:42:22;16.92;;;4.30;;
31130;SDS011;20292;50.944;4.034;2022-09-20T04:04:28;10.55;;;4.45;;
31130;SDS011;20292;50.944;4.034;2022-09-20T04:07:29;16.60;;;4.28;;
31130;SDS011;20292;50.944;4.034;2022-09-20T04:15:31;13.48;;;4.32;;
31130;SDS011;20292;50.944;4.034;2022-09-20T04:26:43;12.20;;;4.60;;
31130;SDS011;20292;50.944;4.034;2022-09-20T04:29:23;12.45;;;5.45;;
31130;SDS011;20292;50.944;4.034;2022-09-20T04:32:13;14.13;;;4.97;;
31130;SDS011;20292;50.944;4.034;2022-09-20T04:35:54;9.60;;;4.68;;
31130;SDS011;20292;50.944;4.034;2022-09-20T04:38:26;9.95;;;4.32;;
31130;SDS011;20292;50.944;4.034;2022-09-20T04:58:16;13.45;;;4.90;;
31130;SDS011;20292;50.944;4.034;2022-09-20T05:11:47;9.68;;;5.15;;
31130;SDS011;20292;50.944;4.034;2022-09-20T05:17:35;11.52;;;5.43;;
31130;SDS011;20292;50.944;4.034;2022-09-20T05:29:01;17.65;;;5.22;;
31130;SDS011;20292;50.944;4.034;2022-09-20T05:31:50;15.10;;;5.45;;
31130;SDS011;20292;50.944;4.034;2022-09-20T05:34:28;15.38;;;5.22;;
31130;SDS011;20292;50.944;4.034;2022-09-20T05:42:21;15.98;;;5.60;;
31130;SDS011;20292;50.944;4.034;2022-09-20T05:45:18;19.75;;;5.97;;
31130;SDS011;20292;50.944;4.034;2022-09-20T05:48:09;13.38;;;5.53;;
31130;SDS011;20292;50.944;4.034;2022-09-20T05:51:12;13.45;;;5.22;;
31130;SDS011;20292;50.944;4.034;2022-09-20T06:05:38;16.38;;;5.63;;
31130;SDS011;20292;50.944;4.034;2022-09-20T06:19:58;14.50;;;5.78;;
31130;SDS011;20292;50.944;4.034;2022-09-20T06:22:38;21.23;;;6.22;;
31130;SDS011;20292;50.944;4.034;2022-09-20T06:25:14;12.07;;;5.13;;
31130;SDS011;20292;50.944;4.034;2022-09-20T06:27:53;18.27;;;6.32;;
31130;SDS011;20292;50.944;4.034;2022-09-20T06:30:34;15.82;;;6.15;;
31130;SDS011;20292;50.944;4.034;2022-09-20T06:41:58;19.15;;;5.90;;
31130;SDS011;20292;50.944;4.034;2022-09-20T06:44:24;11.15;;;5.45;;
31130;SDS011;20292;50.944;4.034;2022-09-20T06:46:50;19.40;;;6.13;;
31130;SDS011;20292;50.944;4.034;2022-09-20T06:49:19;11.40;;;5.15;;
31130;SDS011;20292;50.944;4.034;2022-09-20T06:51:45;19.73;;;6.68;;
31130;SDS011;20292;50.944;4.034;2022-09-20T06:54:13;13.18;;;5.90;;
31130;SDS011;20292;50.944;4.034;2022-09-20T06:56:42;12.48;;;5.40;;
31130;SDS011;20292;50.944;4.034;2022-09-20T06:59:09;12.02;;;5.97;;
31130;SDS011;20292;50.944;4.034;2022-09-20T07:01:37;16.70;;;5.80;;
31130;SDS011;20292;50.944;4.034;2022-09-20T07:04:04;10.32;;;5.70;;
31130;SDS011;20292;50.944;4.034;2022-09-20T07:06:30;17.13;;;5.60;;
31130;SDS011;20292;50.944;4.034;2022-09-20T07:08:59;13.32;;;5.15;;
31130;SDS011;20292;50.944;4.034;2022-09-20T07:11:25;14.55;;;5.38;;
31130;SDS011;20292;50.944;4.034;2022-09-20T07:13:51;16.63;;;6.07;;
31130;SDS011;20292;50.944;4.034;2022-09-20T07:16:18;12.48;;;5.78;;
31130;SDS011;20292;50.944;4.034;2022-09-20T07:18:44;14.68;;;5.40;;
31130;SDS011;20292;50.944;4.034;2022-09-20T07:21:11;13.10;;;5.47;;
31130;SDS011;20292;50.944;4.034;2022-09-20T07:23:38;8.73;;;5.10;;
31130;SDS011;20292;50.944;4.034;2022-09-20T07:26:03;21.25;;;5.78;;
31130;SDS011;20292;50.944;4.034;2022-09-20T07:28:30;16.70;;;5.03;;
31130;SDS011;20292;50.944;4.034;2022-09-20T07:30:58;16.65;;;5.82;;
31130;SDS011;20292;50.944;4.034;2022-09-20T07:33:23;33.22;;;6.10;;
31130;SDS011;20292;50.944;4.034;2022-09-20T07:35:53;15.00;;;4.93;;
31130;SDS011;20292;50.944;4.034;2022-09-20T07:38:19;9.80;;;4.38;;
31130;SDS011;20292;50.944;4.034;2022-09-20T07:40:53;11.85;;;4.40;;
31130;SDS011;20292;50.944;4.034;2022-09-20T07:43:21;17.98;;;4.80;;
31130;SDS011;20292;50.944;4.034;2022-09-20T07:45:48;41.60;;;6.03;;
31130;SDS011;20292;50.944;4.034;2022-09-20T07:48:20;16.15;;;4.35;;
31130;SDS011;20292;50.944;4.034;2022-09-20T07:50:55;52.15;;;6.07;;
31130;SDS011;20292;50.944;4.034;2022-09-20T07:53:41;13.45;;;3.63;;
31130;SDS011;20292;50.944;4.034;2022-09-20T07:56:10;9.25;;;3.28;;
31130;SDS011;20292;50.944;4.034;2022-09-20T07:58:37;149.30;;;9.52;;
31130;SDS011;20292;50.944;4.034;2022-09-20T08:01:05;54.90;;;5.70;;
31130;SDS011;20292;50.944;4.034;2022-09-20T08:03:33;9.77;;;2.92;;
31130;SDS011;20292;50.944;4.034;2022-09-20T08:05:59;12.93;;;3.63;;
31130;SDS011;20292;50.944;4.034;2022-09-20T08:08:26;10.90;;;3.33;;
31130;SDS011;20292;50.944;4.034;2022-09-20T08:10:59;9.95;;;3.55;;
31130;SDS011;20292;50.944;4.034;2022-09-20T08:13:26;36.45;;;4.70;;
31130;SDS011;20292;50.944;4.034;2022-09-20T08:15:59;10.15;;;3.35;;
31130;SDS011;20292;50.944;4.034;2022-09-20T08:20:55;6.03;;;3.30;;
31130;SDS011;20292;50.944;4.034;2022-09-20T08:23:21;9.10;;;3.83;;
31130;SDS011;20292;50.944;4.034;2022-09-20T08:25:46;13.60;;;3.08;;
31130;SDS011;20292;50.944;4.034;2022-09-20T08:28:12;10.23;;;3.17;;
31130;SDS011;20292;50.944;4.034;2022-09-20T08:30:38;7.75;;;3.17;;
31130;SDS011;20292;50.944;4.034;2022-09-20T08:33:04;6.35;;;3.35;;
31130;SDS011;20292;50.944;4.034;2022-09-20T08:35:33;8.27;;;2.92;;
31130;SDS011;20292;50.944;4.034;2022-09-20T08:37:59;14.00;;;3.70;;
31130;SDS011;20292;50.944;4.034;2022-09-20T08:40:25;12.50;;;4.07;;
31130;SDS011;20292;50.944;4.034;2022-09-20T08:42:53;14.07;;;4.32;;
31130;SDS011;20292;50.944;4.034;2022-09-20T08:45:20;11.30;;;3.90;;
31130;SDS011;20292;50.944;4.034;2022-09-20T08:47:49;8.23;;;3.25;;
31130;SDS011;20292;50.944;4.034;2022-09-20T08:50:19;7.80;;;3.15;;
31130;SDS011;20292;50.944;4.034;2022-09-20T08:52:46;7.68;;;2.90;;
31130;SDS011;20292;50.944;4.034;2022-09-20T08:55:14;7.15;;;2.42;;
31130;SDS011;20292;50.944;4.034;2022-09-20T08:57:56;15.48;;;2.90;;
31130;SDS011;20292;50.944;4.034;2022-09-20T09:00:25;8.38;;;2.30;;
31130;SDS011;20292;50.944;4.034;2022-09-20T09:02:55;5.18;;;1.90;;
31130;SDS011;20292;50.944;4.034;2022-09-20T09:05:30;11.55;;;2.50;;
31130;SDS011;20292;50.944;4.034;2022-09-20T09:08:11;3.60;;;1.35;;
31130;SDS011;20292;50.944;4.034;2022-09-20T09:13:07;15.57;;;2.10;;
31130;SDS011;20292;50.944;4.034;2022-09-20T09:15:42;5.40;;;1.50;;
31130;SDS011;20292;50.944;4.034;2022-09-20T09:18:10;7.00;;;1.83;;
31130;SDS011;20292;50.944;4.034;2022-09-20T09:20:39;5.10;;;1.50;;
31130;SDS011;20292;50.944;4.034;2022-09-20T09:23:19;5.30;;;1.40;;
31130;SDS011;20292;50.944;4.034;2022-09-20T09:25:49;8.50;;;1.77;;
31130;SDS011;20292;50.944;4.034;2022-09-20T09:28:16;6.47;;;1.50;;
31130;SDS011;20292;50.944;4.034;2022-09-20T09:30:47;8.90;;;1.50;;
31130;SDS011;20292;50.944;4.034;2022-09-20T09:33:24;4.45;;;1.45;;
31130;SDS011;20292;50.944;4.034;2022-09-20T09:36:07;6.32;;;1.50;;
31130;SDS011;20292;50.944;4.034;2022-09-20T09:38:44;4.00;;;1.02;;
31130;SDS011;20292;50.944;4.034;2022-09-20T09:43:50;7.20;;;1.27;;
31130;SDS011;20292;50.944;4.034;2022-09-20T09:46:40;5.13;;;1.40;;
31130;SDS011;20292;50.944;4.034;2022-09-20T09:49:13;5.18;;;1.20;;
31130;SDS011;20292;50.944;4.034;2022-09-20T09:51:41;5.47;;;1.40;;
31130;SDS011;20292;50.944;4.034;2022-09-20T09:54:27;5.35;;;1.35;;
31130;SDS011;20292;50.944;4.034;2022-09-20T09:57:03;5.55;;;1.20;;
31130;SDS011;20292;50.944;4.034;2022-09-20T10:30:53;6.88;;;1.60;;
31130;SDS011;20292;50.944;4.034;2022-09-20T10:37:03;9.25;;;1.80;;
31130;SDS011;20292;50.944;4.034;2022-09-20T10:39:33;10.98;;;1.95;;
31130;SDS011;20292;50.944;4.034;2022-09-20T10:45:11;5.78;;;1.45;;
31130;SDS011;20292;50.944;4.034;2022-09-20T10:50:35;5.63;;;1.50;;
31130;SDS011;20292;50.944;4.034;2022-09-20T10:58:44;5.97;;;1.48;;
31130;SDS011;20292;50.944;4.034;2022-09-20T11:09:58;5.30;;;1.45;;
31130;SDS011;20292;50.944;4.034;2022-09-20T11:18:31;23.92;;;9.75;;
31130;SDS011;20292;50.944;4.034;2022-09-20T11:20:44;3.58;;;1.10;;
31130;SDS011;20292;50.944;4.034;2022-09-20T11:23:19;7.57;;;1.65;;
31130;SDS011;20292;50.944;4.034;2022-09-20T11:25:51;6.20;;;1.55;;
31130;SDS011;20292;50.944;4.034;2022-09-20T11:28:31;3.03;;;1.10;;
31130;SDS011;20292;50.944;4.034;2022-09-20T11:31:03;4.03;;;1.15;;
31130;SDS011;20292;50.944;4.034;2022-09-20T11:41:35;5.03;;;1.35;;
31130;SDS011;20292;50.944;4.034;2022-09-20T11:44:03;3.70;;;1.05;;
31130;SDS011;20292;50.944;4.034;2022-09-20T11:46:37;2.53;;;1.13;;
31130;SDS011;20292;50.944;4.034;2022-09-20T11:49:16;4.13;;;1.30;;
31130;SDS011;20292;50.944;4.034;2022-09-20T11:57:31;5.07;;;1.10;;
31130;SDS011;20292;50.944;4.034;2022-09-20T11:59:59;5.72;;;1.27;;
31130;SDS011;20292;50.944;4.034;2022-09-20T12:02:43;4.38;;;1.20;;
31130;SDS011;20292;50.944;4.034;2022-09-20T12:07:59;4.05;;;1.10;;
31130;SDS011;20292;50.944;4.034;2022-09-20T12:10:31;4.47;;;1.08;;
31130;SDS011;20292;50.944;4.034;2022-09-20T12:13:04;2.60;;;1.10;;
31130;SDS011;20292;50.944;4.034;2022-09-20T12:15:43;6.07;;;1.50;;
31130;SDS011;20292;50.944;4.034;2022-09-20T12:26:04;7.50;;;1.38;;
31130;SDS011;20292;50.944;4.034;2022-09-20T12:28:53;8.02;;;1.10;;
31130;SDS011;20292;50.944;4.034;2022-09-20T12:33:59;5.28;;;1.40;;
31130;SDS011;20292;50.944;4.034;2022-09-20T12:36:34;6.65;;;1.58;;
31130;SDS011;20292;50.944;4.034;2022-09-20T12:44:28;8.93;;;2.30;;
31130;SDS011;20292;50.944;4.034;2022-09-20T12:55:26;5.32;;;1.83;;
31130;SDS011;20292;50.944;4.034;2022-09-20T13:11:13;5.03;;;2.30;;
31130;SDS011;20292;50.944;4.034;2022-09-20T13:13:48;6.18;;;2.30;;
31130;SDS011;20292;50.944;4.034;2022-09-20T13:21:54;5.50;;;2.13;;
31130;SDS011;20292;50.944;4.034;2022-09-20T13:24:25;3.97;;;1.77;;
31130;SDS011;20292;50.944;4.034;2022-09-20T13:26:59;5.00;;;1.88;;
31130;SDS011;20292;50.944;4.034;2022-09-20T13:29:34;5.93;;;2.00;;
31130;SDS011;20292;50.944;4.034;2022-09-20T13:37:34;6.07;;;1.40;;
31130;SDS011;20292;50.944;4.034;2022-09-20T13:40:14;7.78;;;1.90;;
31130;SDS011;20292;50.944;4.034;2022-09-20T13:42:55;8.15;;;1.80;;
31130;SDS011;20292;50.944;4.034;2022-09-20T13:45:23;6.55;;;1.83;;
31130;SDS011;20292;50.944;4.034;2022-09-20T13:47:51;8.38;;;1.60;;
31130;SDS011;20292;50.944;4.034;2022-09-20T13:50:23;7.75;;;1.60;;
31130;SDS011;20292;50.944;4.034;2022-09-20T13:52:58;8.52;;;1.80;;
31130;SDS011;20292;50.944;4.034;2022-09-20T13:55:29;4.57;;;1.50;;
31130;SDS011;20292;50.944;4.034;2022-09-20T13:58:04;3.78;;;1.42;;
31130;SDS011;20292;50.944;4.034;2022-09-20T14:00:45;3.65;;;1.30;;
31130;SDS011;20292;50.944;4.034;2022-09-20T14:03:15;5.88;;;1.55;;
31130;SDS011;20292;50.944;4.034;2022-09-20T14:05:45;3.60;;;1.50;;
31130;SDS011;20292;50.944;4.034;2022-09-20T14:08:15;3.33;;;1.50;;
31130;SDS011;20292;50.944;4.034;2022-09-20T14:11:07;6.18;;;2.00;;
31130;SDS011;20292;50.944;4.034;2022-09-20T14:13:46;5.45;;;1.67;;
31130;SDS011;20292;50.944;4.034;2022-09-20T14:16:15;9.38;;;2.47;;
31130;SDS011;20292;50.944;4.034;2022-09-20T14:18:42;7.65;;;2.47;;
31130;SDS011;20292;50.944;4.034;2022-09-20T14:21:11;7.38;;;2.53;;
31130;SDS011;20292;50.944;4.034;2022-09-20T14:23:48;7.68;;;1.92;;
31130;SDS011;20292;50.944;4.034;2022-09-20T14:26:36;5.70;;;1.70;;
31130;SDS011;20292;50.944;4.034;2022-09-20T14:31:51;7.18;;;2.00;;
31130;SDS011;20292;50.944;4.034;2022-09-20T14:34:17;5.22;;;1.40;;
31130;SDS011;20292;50.944;4.034;2022-09-20T14:36:43;3.67;;;1.20;;
31130;SDS011;20292;50.944;4.034;2022-09-20T14:39:12;2.35;;;1.08;;
31130;SDS011;20292;50.944;4.034;2022-09-20T14:41:40;4.93;;;1.50;;
31130;SDS011;20292;50.944;4.034;2022-09-20T14:47:12;1.92;;;1.10;;
31130;SDS011;20292;50.944;4.034;2022-09-20T14:49:43;7.35;;;1.25;;
31130;SDS011;20292;50.944;4.034;2022-09-20T14:57:52;11.57;;;1.65;;
31130;SDS011;20292;50.944;4.034;2022-09-20T15:00:20;3.35;;;1.10;;
31130;SDS011;20292;50.944;4.034;2022-09-20T15:02:46;3.80;;;1.20;;
31130;SDS011;20292;50.944;4.034;2022-09-20T15:05:25;5.20;;;1.55;;
31130;SDS011;20292;50.944;4.034;2022-09-20T15:07:52;5.22;;;1.23;;
31130;SDS011;20292;50.944;4.034;2022-09-20T15:10:19;4.82;;;1.30;;
31130;SDS011;20292;50.944;4.034;2022-09-20T15:12:45;4.72;;;1.27;;
31130;SDS011;20292;50.944;4.034;2022-09-20T15:15:11;4.45;;;1.70;;
31130;SDS011;20292;50.944;4.034;2022-09-20T15:17:39;6.80;;;1.48;;
31130;SDS011;20292;50.944;4.034;2022-09-20T15:20:08;4.35;;;1.30;;
31130;SDS011;20292;50.944;4.034;2022-09-20T15:22:42;4.70;;;1.15;;
31130;SDS011;20292;50.944;4.034;2022-09-20T15:25:11;6.05;;;1.30;;
31130;SDS011;20292;50.944;4.034;2022-09-20T15:27:38;7.50;;;2.08;;
31130;SDS011;20292;50.944;4.034;2022-09-20T15:30:04;7.10;;;2.00;;
31130;SDS011;20292;50.944;4.034;2022-09-20T15:32:30;3.67;;;1.38;;
31130;SDS011;20292;50.944;4.034;2022-09-20T15:34:55;7.78;;;1.77;;
31130;SDS011;20292;50.944;4.034;2022-09-20T15:37:21;4.28;;;1.75;;
31130;SDS011;20292;50.944;4.034;2022-09-20T15:39:47;6.03;;;1.70;;
31130;SDS011;20292;50.944;4.034;2022-09-20T15:42:13;6.80;;;1.88;;
31130;SDS011;20292;50.944;4.034;2022-09-20T15:44:39;5.88;;;1.95;;
31130;SDS011;20292;50.944;4.034;2022-09-20T15:47:04;7.95;;;2.05;;
31130;SDS011;20292;50.944;4.034;2022-09-20T15:49:30;4.70;;;1.40;;
31130;SDS011;20292;50.944;4.034;2022-09-20T15:51:57;3.80;;;1.70;;
31130;SDS011;20292;50.944;4.034;2022-09-20T15:54:22;5.80;;;1.40;;
31130;SDS011;20292;50.944;4.034;2022-09-20T15:56:50;4.78;;;1.88;;
31130;SDS011;20292;50.944;4.034;2022-09-20T15:59:17;6.78;;;1.92;;
31130;SDS011;20292;50.944;4.034;2022-09-20T16:01:47;5.00;;;2.22;;
31130;SDS011;20292;50.944;4.034;2022-09-20T16:04:13;7.47;;;1.92;;
31130;SDS011;20292;50.944;4.034;2022-09-20T16:06:43;6.13;;;1.48;;
31130;SDS011;20292;50.944;4.034;2022-09-20T16:09:10;7.57;;;2.25;;
31130;SDS011;20292;50.944;4.034;2022-09-20T16:11:36;8.55;;;2.05;;
31130;SDS011;20292;50.944;4.034;2022-09-20T16:14:02;7.28;;;1.90;;
31130;SDS011;20292;50.944;4.034;2022-09-20T16:16:29;8.95;;;1.90;;
31130;SDS011;20292;50.944;4.034;2022-09-20T16:18:56;6.70;;;1.90;;
31130;SDS011;20292;50.944;4.034;2022-09-20T16:21:42;12.45;;;3.70;;
31130;SDS011;20292;50.944;4.034;2022-09-20T16:24:08;9.95;;;2.70;;
31130;SDS011;20292;50.944;4.034;2022-09-20T16:26:36;5.28;;;2.10;;
31130;SDS011;20292;50.944;4.034;2022-09-20T16:29:02;5.85;;;1.85;;
31130;SDS011;20292;50.944;4.034;2022-09-20T16:31:40;5.43;;;2.60;;
31130;SDS011;20292;50.944;4.034;2022-09-20T16:34:11;8.20;;;2.53;;
31130;SDS011;20292;50.944;4.034;2022-09-20T16:36:56;7.32;;;2.25;;
31130;SDS011;20292;50.944;4.034;2022-09-20T16:39:23;5.32;;;2.10;;
31130;SDS011;20292;50.944;4.034;2022-09-20T16:41:53;8.65;;;2.72;;
31130;SDS011;20292;50.944;4.034;2022-09-20T16:44:27;5.30;;;2.30;;
31130;SDS011;20292;50.944;4.034;2022-09-20T16:46:53;7.68;;;2.85;;
31130;SDS011;20292;50.944;4.034;2022-09-20T16:49:19;11.32;;;3.75;;
31130;SDS011;20292;50.944;4.034;2022-09-20T16:51:44;11.77;;;4.57;;
31130;SDS011;20292;50.944;4.034;2022-09-20T16:54:12;13.88;;;5.78;;
31130;SDS011;20292;50.944;4.034;2022-09-20T16:56:40;16.60;;;5.93;;
31130;SDS011;20292;50.944;4.034;2022-09-20T16:59:10;15.10;;;5.60;;
31130;SDS011;20292;50.944;4.034;2022-09-20T17:01:37;12.70;;;4.53;;
31130;SDS011;20292;50.944;4.034;2022-09-20T17:04:04;15.57;;;6.25;;
31130;SDS011;20292;50.944;4.034;2022-09-20T17:06:30;16.13;;;6.68;;
31130;SDS011;20292;50.944;4.034;2022-09-20T17:08:58;17.90;;;6.93;;
31130;SDS011;20292;50.944;4.034;2022-09-20T17:11:25;14.98;;;6.85;;
31130;SDS011;20292;50.944;4.034;2022-09-20T17:13:55;15.68;;;6.35;;
31130;SDS011;20292;50.944;4.034;2022-09-20T17:16:22;16.10;;;6.65;;
31130;SDS011;20292;50.944;4.034;2022-09-20T17:18:54;17.05;;;6.05;;
31130;SDS011;20292;50.944;4.034;2022-09-20T17:21:22;16.70;;;6.85;;
31130;SDS011;20292;50.944;4.034;2022-09-20T17:23:49;17.83;;;5.93;;
31130;SDS011;20292;50.944;4.034;2022-09-20T17:26:22;20.08;;;5.78;;
31130;SDS011;20292;50.944;4.034;2022-09-20T17:28:50;13.35;;;5.68;;
31130;SDS011;20292;50.944;4.034;2022-09-20T17:31:21;14.63;;;5.95;;
31130;SDS011;20292;50.944;4.034;2022-09-20T17:33:49;14.98;;;5.80;;
31130;SDS011;20292;50.944;4.034;2022-09-20T17:36:17;11.40;;;4.55;;
31130;SDS011;20292;50.944;4.034;2022-09-20T17:38:44;13.88;;;5.38;;
31130;SDS011;20292;50.944;4.034;2022-09-20T17:41:12;9.75;;;5.30;;
31130;SDS011;20292;50.944;4.034;2022-09-20T17:43:45;15.60;;;6.38;;
31130;SDS011;20292;50.944;4.034;2022-09-20T17:46:13;12.73;;;6.65;;
31130;SDS011;20292;50.944;4.034;2022-09-20T17:48:41;14.68;;;6.75;;
31130;SDS011;20292;50.944;4.034;2022-09-20T17:51:13;15.02;;;5.88;;
31130;SDS011;20292;50.944;4.034;2022-09-20T17:53:40;13.10;;;5.70;;
31130;SDS011;20292;50.944;4.034;2022-09-20T17:56:06;10.40;;;5.80;;
31130;SDS011;20292;50.944;4.034;2022-09-20T17:58:32;11.88;;;5.57;;
31130;SDS011;20292;50.944;4.034;2022-09-20T18:01:33;16.20;;;7.57;;
31130;SDS011;20292;50.944;4.034;2022-09-20T18:03:52;12.05;;;6.50;;
31130;SDS011;20292;50.944;4.034;2022-09-20T18:06:24;16.85;;;7.20;;
31130;SDS011;20292;50.944;4.034;2022-09-20T18:08:53;10.93;;;6.63;;
31130;SDS011;20292;50.944;4.034;2022-09-20T18:13:58;18.15;;;6.28;;
31130;SDS011;20292;50.944;4.034;2022-09-20T18:16:24;11.65;;;5.50;;
31130;SDS011;20292;50.944;4.034;2022-09-20T18:18:50;12.68;;;5.65;;
31130;SDS011;20292;50.944;4.034;2022-09-20T18:21:17;11.55;;;5.40;;
31130;SDS011;20292;50.944;4.034;2022-09-20T18:23:48;10.48;;;5.40;;
31130;SDS011;20292;50.944;4.034;2022-09-20T18:26:16;11.85;;;5.35;;
31130;SDS011;20292;50.944;4.034;2022-09-20T18:28:56;11.35;;;4.88;;
31130;SDS011;20292;50.944;4.034;2022-09-20T18:31:23;12.70;;;5.43;;
31130;SDS011;20292;50.944;4.034;2022-09-20T18:33:54;9.98;;;5.13;;
31130;SDS011;20292;50.944;4.034;2022-09-20T18:36:20;12.77;;;5.20;;
31130;SDS011;20292;50.944;4.034;2022-09-20T18:38:49;12.15;;;5.53;;
31130;SDS011;20292;50.944;4.034;2022-09-20T18:41:18;13.10;;;5.43;;
31130;SDS011;20292;50.944;4.034;2022-09-20T18:43:49;11.52;;;6.43;;
31130;SDS011;20292;50.944;4.034;2022-09-20T18:46:15;12.60;;;5.35;;
31130;SDS011;20292;50.944;4.034;2022-09-20T18:48:47;13.05;;;6.40;;
31130;SDS011;20292;50.944;4.034;2022-09-20T18:51:14;23.92;;;6.28;;
31130;SDS011;20292;50.944;4.034;2022-09-20T18:53:40;10.23;;;5.70;;
31130;SDS011;20292;50.944;4.034;2022-09-20T18:58:33;12.20;;;6.38;;
31130;SDS011;20292;50.944;4.034;2022-09-20T19:09:34;14.98;;;6.75;;
31130;SDS011;20292;50.944;4.034;2022-09-20T19:26:23;12.40;;;6.68;;
31130;SDS011;20292;50.944;4.034;2022-09-20T19:28:51;13.43;;;6.78;;
31130;SDS011;20292;50.944;4.034;2022-09-20T19:36:24;15.20;;;6.72;;
31130;SDS011;20292;50.944;4.034;2022-09-20T19:39:15;15.63;;;6.43;;
31130;SDS011;20292;50.944;4.034;2022-09-20T19:41:47;24.13;;;10.65;;
31130;SDS011;20292;50.944;4.034;2022-09-20T19:47:19;15.70;;;7.20;;
31130;SDS011;20292;50.944;4.034;2022-09-20T19:50:07;13.68;;;7.03;;
31130;SDS011;20292;50.944;4.034;2022-09-20T19:52:40;12.93;;;7.13;;
31130;SDS011;20292;50.944;4.034;2022-09-20T19:55:09;18.00;;;7.53;;
31130;SDS011;20292;50.944;4.034;2022-09-20T19:57:39;17.40;;;7.53;;
31130;SDS011;20292;50.944;4.034;2022-09-20T20:00:10;12.35;;;7.30;;
31130;SDS011;20292;50.944;4.034;2022-09-20T20:02:38;11.18;;;7.15;;
31130;SDS011;20292;50.944;4.034;2022-09-20T20:05:04;13.05;;;6.53;;
31130;SDS011;20292;50.944;4.034;2022-09-20T20:07:35;15.52;;;9.15;;
31130;SDS011;20292;50.944;4.034;2022-09-20T20:10:12;15.85;;;8.95;;
31130;SDS011;20292;50.944;4.034;2022-09-20T20:15:36;14.48;;;8.32;;
31130;SDS011;20292;50.944;4.034;2022-09-20T20:18:10;16.75;;;8.90;;
31130;SDS011;20292;50.944;4.034;2022-09-20T20:20:49;18.90;;;10.35;;
31130;SDS011;20292;50.944;4.034;2022-09-20T20:23:33;17.50;;;9.55;;
31130;SDS011;20292;50.944;4.034;2022-09-20T20:26:20;16.50;;;9.07;;
31130;SDS011;20292;50.944;4.034;2022-09-20T20:28:47;22.50;;;9.82;;
31130;SDS011;20292;50.944;4.034;2022-09-20T20:31:13;19.27;;;9.75;;
31130;SDS011;20292;50.944;4.034;2022-09-20T20:33:38;16.05;;;9.73;;
31130;SDS011;20292;50.944;4.034;2022-09-20T20:36:05;16.08;;;9.93;;
31130;SDS011;20292;50.944;4.034;2022-09-20T20:38:35;18.17;;;10.27;;
31130;SDS011;20292;50.944;4.034;2022-09-20T20:41:04;20.27;;;10.82;;
31130;SDS011;20292;50.944;4.034;2022-09-20T20:43:33;18.38;;;11.00;;
31130;SDS011;20292;50.944;4.034;2022-09-20T20:46:00;18.58;;;10.73;;
31130;SDS011;20292;50.944;4.034;2022-09-20T20:48:27;19.65;;;10.48;;
31130;SDS011;20292;50.944;4.034;2022-09-20T20:51:00;16.23;;;9.60;;
31130;SDS011;20292;50.944;4.034;2022-09-20T20:53:37;16.80;;;9.93;;
31130;SDS011;20292;50.944;4.034;2022-09-20T20:56:08;20.23;;;11.02;;
31130;SDS011;20292;50.944;4.034;2022-09-20T20:58:55;19.58;;;11.60;;
31130;SDS011;20292;50.944;4.034;2022-09-20T21:01:26;21.58;;;11.70;;
31130;SDS011;20292;50.944;4.034;2022-09-20T21:03:54;18.38;;;10.80;;
31130;SDS011;20292;50.944;4.034;2022-09-20T21:06:21;20.40;;;11.10;;
31130;SDS011;20292;50.944;4.034;2022-09-20T21:08:49;20.50;;;11.73;;
31130;SDS011;20292;50.944;4.034;2022-09-20T21:11:16;22.55;;;11.90;;
31130;SDS011;20292;50.944;4.034;2022-09-20T21:13:42;21.20;;;12.25;;
31130;SDS011;20292;50.944;4.034;2022-09-20T21:16:09;19.38;;;11.73;;
31130;SDS011;20292;50.944;4.034;2022-09-20T21:18:38;20.83;;;11.25;;
31130;SDS011;20292;50.944;4.034;2022-09-20T21:21:19;23.15;;;11.98;;
31130;SDS011;20292;50.944;4.034;2022-09-20T21:23:49;16.23;;;10.70;;